sensor_id;sensor_type;location;lat;lon;timestamp;P1;durP1;ratioP1;P2;durP2;ratioP2
24008;SDS011;12217;50.792;4.372;2024-02-26T00:01:10;3.35;;;1.98;;
24008;SDS011;12217;50.792;4.372;2024-02-26T00:03:36;3.97;;;2.20;;
24008;SDS011;12217;50.792;4.372;2024-02-26T00:06:02;4.65;;;2.03;;
24008;SDS011;12217;50.792;4.372;2024-02-26T00:08:28;2.90;;;1.85;;
24008;SDS011;12217;50.792;4.372;2024-02-26T00:10:53;2.72;;;2.03;;
24008;SDS011;12217;50.792;4.372;2024-02-26T00:13:19;3.97;;;2.30;;
24008;SDS011;12217;50.792;4.372;2024-02-26T00:15:45;3.40;;;2.13;;
24008;SDS011;12217;50.792;4.372;2024-02-26T00:18:11;2.75;;;2.05;;
24008;SDS011;12217;50.792;4.372;2024-02-26T00:20:36;3.92;;;2.05;;
24008;SDS011;12217;50.792;4.372;2024-02-26T00:23:02;3.03;;;2.15;;
24008;SDS011;12217;50.792;4.372;2024-02-26T00:25:28;3.63;;;2.10;;
24008;SDS011;12217;50.792;4.372;2024-02-26T00:27:53;4.47;;;2.30;;
24008;SDS011;12217;50.792;4.372;2024-02-26T00:30:19;2.60;;;2.20;;
24008;SDS011;12217;50.792;4.372;2024-02-26T00:32:44;2.75;;;2.00;;
24008;SDS011;12217;50.792;4.372;2024-02-26T00:35:10;4.72;;;2.47;;
24008;SDS011;12217;50.792;4.372;2024-02-26T00:37:35;2.35;;;1.90;;
24008;SDS011;12217;50.792;4.372;2024-02-26T00:40:01;2.42;;;2.10;;
24008;SDS011;12217;50.792;4.372;2024-02-26T00:42:27;4.13;;;2.40;;
24008;SDS011;12217;50.792;4.372;2024-02-26T00:44:52;2.40;;;2.00;;
24008;SDS011;12217;50.792;4.372;2024-02-26T00:47:18;2.85;;;2.00;;
24008;SDS011;12217;50.792;4.372;2024-02-26T00:49:43;2.75;;;2.00;;
24008;SDS011;12217;50.792;4.372;2024-02-26T00:52:09;5.15;;;2.20;;
24008;SDS011;12217;50.792;4.372;2024-02-26T00:54:34;3.13;;;1.88;;
24008;SDS011;12217;50.792;4.372;2024-02-26T00:57:00;2.78;;;2.13;;
24008;SDS011;12217;50.792;4.372;2024-02-26T00:59:26;2.75;;;1.70;;
24008;SDS011;12217;50.792;4.372;2024-02-26T01:01:51;5.30;;;2.00;;
24008;SDS011;12217;50.792;4.372;2024-02-26T01:04:17;3.65;;;1.90;;
24008;SDS011;12217;50.792;4.372;2024-02-26T01:06:43;2.65;;;1.80;;
24008;SDS011;12217;50.792;4.372;2024-02-26T01:09:08;2.75;;;1.77;;
24008;SDS011;12217;50.792;4.372;2024-02-26T01:11:34;4.72;;;1.92;;
24008;SDS011;12217;50.792;4.372;2024-02-26T01:13:59;2.47;;;1.60;;
24008;SDS011;12217;50.792;4.372;2024-02-26T01:16:25;3.13;;;1.80;;
24008;SDS011;12217;50.792;4.372;2024-02-26T01:18:53;2.65;;;1.70;;
24008;SDS011;12217;50.792;4.372;2024-02-26T01:21:19;4.55;;;1.80;;
24008;SDS011;12217;50.792;4.372;2024-02-26T01:23:44;3.13;;;1.63;;
24008;SDS011;12217;50.792;4.372;2024-02-26T01:26:10;3.08;;;1.75;;
24008;SDS011;12217;50.792;4.372;2024-02-26T01:28:36;2.10;;;1.60;;
24008;SDS011;12217;50.792;4.372;2024-02-26T01:31:01;3.97;;;1.90;;
24008;SDS011;12217;50.792;4.372;2024-02-26T01:33:30;4.38;;;2.10;;
24008;SDS011;12217;50.792;4.372;2024-02-26T01:35:55;3.10;;;1.90;;
24008;SDS011;12217;50.792;4.372;2024-02-26T01:38:21;3.67;;;2.22;;
24008;SDS011;12217;50.792;4.372;2024-02-26T01:40:46;3.45;;;2.47;;
24008;SDS011;12217;50.792;4.372;2024-02-26T01:43:12;3.72;;;1.92;;
24008;SDS011;12217;50.792;4.372;2024-02-26T01:45:37;2.63;;;2.10;;
24008;SDS011;12217;50.792;4.372;2024-02-26T01:48:03;2.45;;;1.80;;
24008;SDS011;12217;50.792;4.372;2024-02-26T01:50:29;2.67;;;1.70;;
24008;SDS011;12217;50.792;4.372;2024-02-26T01:52:54;2.72;;;1.83;;
24008;SDS011;12217;50.792;4.372;2024-02-26T01:55:22;2.30;;;1.73;;
24008;SDS011;12217;50.792;4.372;2024-02-26T01:57:49;5.80;;;1.80;;
24008;SDS011;12217;50.792;4.372;2024-02-26T02:00:16;2.33;;;1.85;;
24008;SDS011;12217;50.792;4.372;2024-02-26T02:02:43;2.60;;;1.90;;
24008;SDS011;12217;50.792;4.372;2024-02-26T02:05:11;2.30;;;1.75;;
24008;SDS011;12217;50.792;4.372;2024-02-26T02:07:38;3.90;;;2.17;;
24008;SDS011;12217;50.792;4.372;2024-02-26T02:10:05;2.35;;;1.67;;
24008;SDS011;12217;50.792;4.372;2024-02-26T02:12:31;2.83;;;1.42;;
24008;SDS011;12217;50.792;4.372;2024-02-26T02:14:58;2.97;;;1.70;;
24008;SDS011;12217;50.792;4.372;2024-02-26T02:17:24;2.72;;;1.80;;
24008;SDS011;12217;50.792;4.372;2024-02-26T02:19:50;2.25;;;1.90;;
24008;SDS011;12217;50.792;4.372;2024-02-26T02:22:15;2.35;;;1.60;;
24008;SDS011;12217;50.792;4.372;2024-02-26T02:24:41;2.67;;;1.60;;
24008;SDS011;12217;50.792;4.372;2024-02-26T02:27:06;4.80;;;1.85;;
24008;SDS011;12217;50.792;4.372;2024-02-26T02:29:32;3.50;;;1.55;;
24008;SDS011;12217;50.792;4.372;2024-02-26T02:31:57;2.00;;;1.70;;
24008;SDS011;12217;50.792;4.372;2024-02-26T02:34:25;2.33;;;1.58;;
24008;SDS011;12217;50.792;4.372;2024-02-26T02:36:51;3.38;;;1.70;;
24008;SDS011;12217;50.792;4.372;2024-02-26T02:39:17;2.53;;;1.50;;
24008;SDS011;12217;50.792;4.372;2024-02-26T02:41:43;1.80;;;1.50;;
24008;SDS011;12217;50.792;4.372;2024-02-26T02:44:09;1.92;;;1.73;;
24008;SDS011;12217;50.792;4.372;2024-02-26T02:46:35;2.42;;;1.60;;
24008;SDS011;12217;50.792;4.372;2024-02-26T02:49:00;1.58;;;1.48;;
24008;SDS011;12217;50.792;4.372;2024-02-26T02:51:26;3.38;;;2.20;;
24008;SDS011;12217;50.792;4.372;2024-02-26T02:53:52;1.90;;;1.70;;
24008;SDS011;12217;50.792;4.372;2024-02-26T02:56:17;2.63;;;1.67;;
24008;SDS011;12217;50.792;4.372;2024-02-26T02:58:43;2.85;;;1.92;;
24008;SDS011;12217;50.792;4.372;2024-02-26T03:01:09;2.78;;;1.58;;
24008;SDS011;12217;50.792;4.372;2024-02-26T03:03:35;2.38;;;1.70;;
24008;SDS011;12217;50.792;4.372;2024-02-26T03:06:01;1.83;;;1.73;;
24008;SDS011;12217;50.792;4.372;2024-02-26T03:08:27;2.13;;;1.92;;
24008;SDS011;12217;50.792;4.372;2024-02-26T03:10:53;3.92;;;1.80;;
24008;SDS011;12217;50.792;4.372;2024-02-26T03:13:19;1.90;;;1.60;;
24008;SDS011;12217;50.792;4.372;2024-02-26T03:15:45;2.10;;;1.90;;
24008;SDS011;12217;50.792;4.372;2024-02-26T03:18:10;2.05;;;1.60;;
24008;SDS011;12217;50.792;4.372;2024-02-26T03:20:36;3.67;;;2.05;;
24008;SDS011;12217;50.792;4.372;2024-02-26T03:23:02;2.78;;;1.85;;
24008;SDS011;12217;50.792;4.372;2024-02-26T03:25:28;2.80;;;2.10;;
24008;SDS011;12217;50.792;4.372;2024-02-26T03:27:53;3.25;;;1.90;;
24008;SDS011;12217;50.792;4.372;2024-02-26T03:30:19;4.93;;;2.10;;
24008;SDS011;12217;50.792;4.372;2024-02-26T03:32:44;3.72;;;2.03;;
24008;SDS011;12217;50.792;4.372;2024-02-26T03:35:11;3.17;;;1.83;;
24008;SDS011;12217;50.792;4.372;2024-02-26T03:37:37;2.72;;;2.20;;
24008;SDS011;12217;50.792;4.372;2024-02-26T03:40:03;2.45;;;2.15;;
24008;SDS011;12217;50.792;4.372;2024-02-26T03:42:29;3.83;;;2.33;;
24008;SDS011;12217;50.792;4.372;2024-02-26T03:44:54;4.07;;;2.38;;
24008;SDS011;12217;50.792;4.372;2024-02-26T03:47:20;3.00;;;2.33;;
24008;SDS011;12217;50.792;4.372;2024-02-26T03:49:45;4.43;;;2.38;;
24008;SDS011;12217;50.792;4.372;2024-02-26T03:52:11;4.53;;;2.33;;
24008;SDS011;12217;50.792;4.372;2024-02-26T03:54:37;4.65;;;2.40;;
24008;SDS011;12217;50.792;4.372;2024-02-26T03:57:02;2.50;;;2.30;;
24008;SDS011;12217;50.792;4.372;2024-02-26T03:59:28;3.50;;;2.25;;
24008;SDS011;12217;50.792;4.372;2024-02-26T04:01:53;3.13;;;2.20;;
24008;SDS011;12217;50.792;4.372;2024-02-26T04:04:19;3.95;;;2.10;;
24008;SDS011;12217;50.792;4.372;2024-02-26T04:06:45;2.53;;;2.20;;
24008;SDS011;12217;50.792;4.372;2024-02-26T04:09:12;2.50;;;2.30;;
24008;SDS011;12217;50.792;4.372;2024-02-26T04:11:41;2.45;;;2.25;;
24008;SDS011;12217;50.792;4.372;2024-02-26T04:14:08;3.25;;;2.28;;
24008;SDS011;12217;50.792;4.372;2024-02-26T04:16:34;2.92;;;2.33;;
24008;SDS011;12217;50.792;4.372;2024-02-26T04:19:02;2.65;;;2.28;;
24008;SDS011;12217;50.792;4.372;2024-02-26T04:21:28;2.60;;;2.35;;
24008;SDS011;12217;50.792;4.372;2024-02-26T04:23:54;3.38;;;2.50;;
24008;SDS011;12217;50.792;4.372;2024-02-26T04:26:25;3.08;;;2.78;;
24008;SDS011;12217;50.792;4.372;2024-02-26T04:28:51;5.95;;;2.72;;
24008;SDS011;12217;50.792;4.372;2024-02-26T04:31:17;3.60;;;2.97;;
24008;SDS011;12217;50.792;4.372;2024-02-26T04:33:43;3.22;;;2.65;;
24008;SDS011;12217;50.792;4.372;2024-02-26T04:36:15;2.88;;;2.65;;
24008;SDS011;12217;50.792;4.372;2024-02-26T04:38:42;3.00;;;2.80;;
24008;SDS011;12217;50.792;4.372;2024-02-26T04:41:10;2.90;;;2.70;;
24008;SDS011;12217;50.792;4.372;2024-02-26T04:43:36;2.92;;;2.65;;
24008;SDS011;12217;50.792;4.372;2024-02-26T04:46:08;6.10;;;3.03;;
24008;SDS011;12217;50.792;4.372;2024-02-26T04:48:34;4.85;;;2.83;;
24008;SDS011;12217;50.792;4.372;2024-02-26T04:51:07;5.30;;;3.38;;
24008;SDS011;12217;50.792;4.372;2024-02-26T04:53:32;3.45;;;3.10;;
24008;SDS011;12217;50.792;4.372;2024-02-26T04:55:58;3.55;;;3.22;;
24008;SDS011;12217;50.792;4.372;2024-02-26T04:58:23;4.90;;;4.03;;
24008;SDS011;12217;50.792;4.372;2024-02-26T05:00:49;5.32;;;4.22;;
24008;SDS011;12217;50.792;4.372;2024-02-26T05:03:15;5.22;;;4.03;;
24008;SDS011;12217;50.792;4.372;2024-02-26T05:05:41;5.28;;;4.78;;
24008;SDS011;12217;50.792;4.372;2024-02-26T05:08:10;6.20;;;4.80;;
24008;SDS011;12217;50.792;4.372;2024-02-26T05:10:39;6.28;;;5.20;;
24008;SDS011;12217;50.792;4.372;2024-02-26T05:13:06;5.60;;;4.68;;
24008;SDS011;12217;50.792;4.372;2024-02-26T05:15:32;6.45;;;5.00;;
24008;SDS011;12217;50.792;4.372;2024-02-26T05:17:57;5.50;;;4.93;;
24008;SDS011;12217;50.792;4.372;2024-02-26T05:20:23;5.43;;;4.93;;
24008;SDS011;12217;50.792;4.372;2024-02-26T05:22:49;5.43;;;4.88;;
24008;SDS011;12217;50.792;4.372;2024-02-26T05:25:15;5.57;;;5.07;;
24008;SDS011;12217;50.792;4.372;2024-02-26T05:27:43;6.95;;;5.75;;
24008;SDS011;12217;50.792;4.372;2024-02-26T05:30:09;6.22;;;5.63;;
24008;SDS011;12217;50.792;4.372;2024-02-26T05:32:36;6.78;;;5.70;;
24008;SDS011;12217;50.792;4.372;2024-02-26T05:35:02;6.10;;;5.35;;
24008;SDS011;12217;50.792;4.372;2024-02-26T05:37:30;6.43;;;5.82;;
24008;SDS011;12217;50.792;4.372;2024-02-26T05:39:56;6.95;;;6.22;;
24008;SDS011;12217;50.792;4.372;2024-02-26T05:42:21;6.95;;;6.25;;
24008;SDS011;12217;50.792;4.372;2024-02-26T05:44:47;7.30;;;6.18;;
24008;SDS011;12217;50.792;4.372;2024-02-26T05:47:13;7.68;;;6.50;;
24008;SDS011;12217;50.792;4.372;2024-02-26T05:49:38;7.47;;;6.78;;
24008;SDS011;12217;50.792;4.372;2024-02-26T05:52:04;7.47;;;6.78;;
24008;SDS011;12217;50.792;4.372;2024-02-26T05:54:31;7.90;;;7.15;;
24008;SDS011;12217;50.792;4.372;2024-02-26T05:56:57;8.63;;;7.75;;
24008;SDS011;12217;50.792;4.372;2024-02-26T05:59:22;8.82;;;7.68;;
24008;SDS011;12217;50.792;4.372;2024-02-26T06:01:48;8.40;;;7.60;;
24008;SDS011;12217;50.792;4.372;2024-02-26T06:04:13;9.60;;;8.50;;
24008;SDS011;12217;50.792;4.372;2024-02-26T06:06:39;9.88;;;8.88;;
24008;SDS011;12217;50.792;4.372;2024-02-26T06:09:05;10.20;;;9.20;;
24008;SDS011;12217;50.792;4.372;2024-02-26T06:11:31;11.10;;;9.90;;
24008;SDS011;12217;50.792;4.372;2024-02-26T06:13:56;11.93;;;9.85;;
24008;SDS011;12217;50.792;4.372;2024-02-26T06:16:22;11.68;;;10.50;;
24008;SDS011;12217;50.792;4.372;2024-02-26T06:18:47;11.25;;;10.10;;
24008;SDS011;12217;50.792;4.372;2024-02-26T06:21:13;11.40;;;10.30;;
24008;SDS011;12217;50.792;4.372;2024-02-26T06:23:39;13.27;;;11.00;;
24008;SDS011;12217;50.792;4.372;2024-02-26T06:26:05;12.38;;;11.10;;
24008;SDS011;12217;50.792;4.372;2024-02-26T06:28:31;13.02;;;11.70;;
24008;SDS011;12217;50.792;4.372;2024-02-26T06:30:58;12.73;;;10.65;;
24008;SDS011;12217;50.792;4.372;2024-02-26T06:33:24;12.55;;;11.25;;
24008;SDS011;12217;50.792;4.372;2024-02-26T06:35:50;14.00;;;12.10;;
24008;SDS011;12217;50.792;4.372;2024-02-26T06:38:15;12.38;;;11.07;;
24008;SDS011;12217;50.792;4.372;2024-02-26T06:40:42;13.98;;;12.27;;
24008;SDS011;12217;50.792;4.372;2024-02-26T06:43:08;13.05;;;11.85;;
24008;SDS011;12217;50.792;4.372;2024-02-26T06:45:34;13.70;;;12.25;;
24008;SDS011;12217;50.792;4.372;2024-02-26T06:48:00;13.85;;;12.32;;
24008;SDS011;12217;50.792;4.372;2024-02-26T06:50:25;13.77;;;11.77;;
24008;SDS011;12217;50.792;4.372;2024-02-26T06:52:51;13.35;;;11.40;;
24008;SDS011;12217;50.792;4.372;2024-02-26T06:55:17;12.88;;;11.57;;
24008;SDS011;12217;50.792;4.372;2024-02-26T06:57:42;12.90;;;11.07;;
24008;SDS011;12217;50.792;4.372;2024-02-26T07:00:08;14.57;;;12.13;;
24008;SDS011;12217;50.792;4.372;2024-02-26T07:02:37;12.85;;;11.55;;
24008;SDS011;12217;50.792;4.372;2024-02-26T07:05:03;13.13;;;11.82;;
24008;SDS011;12217;50.792;4.372;2024-02-26T07:07:28;12.27;;;11.18;;
24008;SDS011;12217;50.792;4.372;2024-02-26T07:09:54;13.07;;;11.88;;
24008;SDS011;12217;50.792;4.372;2024-02-26T07:12:20;12.32;;;11.10;;
24008;SDS011;12217;50.792;4.372;2024-02-26T07:14:46;13.15;;;11.85;;
24008;SDS011;12217;50.792;4.372;2024-02-26T07:17:13;12.65;;;11.40;;
24008;SDS011;12217;50.792;4.372;2024-02-26T07:19:41;13.88;;;12.60;;
24008;SDS011;12217;50.792;4.372;2024-02-26T07:22:07;12.73;;;11.52;;
24008;SDS011;12217;50.792;4.372;2024-02-26T07:24:32;13.13;;;11.82;;
24008;SDS011;12217;50.792;4.372;2024-02-26T07:26:58;13.50;;;12.30;;
24008;SDS011;12217;50.792;4.372;2024-02-26T07:29:23;13.05;;;11.75;;
24008;SDS011;12217;50.792;4.372;2024-02-26T07:31:49;13.68;;;12.30;;
24008;SDS011;12217;50.792;4.372;2024-02-26T07:34:14;14.18;;;12.85;;
24008;SDS011;12217;50.792;4.372;2024-02-26T07:36:40;14.55;;;13.05;;
24008;SDS011;12217;50.792;4.372;2024-02-26T07:39:06;13.80;;;12.43;;
24008;SDS011;12217;50.792;4.372;2024-02-26T07:41:31;14.25;;;12.23;;
24008;SDS011;12217;50.792;4.372;2024-02-26T07:43:57;13.10;;;11.80;;
24008;SDS011;12217;50.792;4.372;2024-02-26T07:46:23;13.60;;;12.30;;
24008;SDS011;12217;50.792;4.372;2024-02-26T07:48:49;13.43;;;12.02;;
24008;SDS011;12217;50.792;4.372;2024-02-26T07:51:14;12.68;;;11.50;;
24008;SDS011;12217;50.792;4.372;2024-02-26T07:53:40;12.68;;;11.48;;
24008;SDS011;12217;50.792;4.372;2024-02-26T07:56:06;11.95;;;10.88;;
24008;SDS011;12217;50.792;4.372;2024-02-26T07:58:32;13.00;;;11.63;;
24008;SDS011;12217;50.792;4.372;2024-02-26T08:00:58;13.07;;;11.88;;
24008;SDS011;12217;50.792;4.372;2024-02-26T08:03:24;13.43;;;12.13;;
24008;SDS011;12217;50.792;4.372;2024-02-26T08:05:50;21.02;;;13.05;;
24008;SDS011;12217;50.792;4.372;2024-02-26T08:08:16;13.48;;;12.15;;
24008;SDS011;12217;50.792;4.372;2024-02-26T08:10:42;13.77;;;12.32;;
24008;SDS011;12217;50.792;4.372;2024-02-26T08:13:08;12.55;;;11.45;;
24008;SDS011;12217;50.792;4.372;2024-02-26T08:15:35;12.50;;;11.40;;
24008;SDS011;12217;50.792;4.372;2024-02-26T08:18:02;13.38;;;12.07;;
24008;SDS011;12217;50.792;4.372;2024-02-26T08:20:28;13.77;;;12.57;;
24008;SDS011;12217;50.792;4.372;2024-02-26T08:22:54;12.43;;;11.15;;
24008;SDS011;12217;50.792;4.372;2024-02-26T08:25:22;11.70;;;10.70;;
24008;SDS011;12217;50.792;4.372;2024-02-26T08:27:48;13.18;;;11.63;;
24008;SDS011;12217;50.792;4.372;2024-02-26T08:30:14;18.08;;;16.25;;
24008;SDS011;12217;50.792;4.372;2024-02-26T08:32:42;14.57;;;13.05;;
24008;SDS011;12217;50.792;4.372;2024-02-26T08:35:08;12.95;;;11.75;;
24008;SDS011;12217;50.792;4.372;2024-02-26T08:37:34;11.93;;;10.93;;
24008;SDS011;12217;50.792;4.372;2024-02-26T08:39:59;14.25;;;12.77;;
24008;SDS011;12217;50.792;4.372;2024-02-26T08:42:25;13.77;;;12.38;;
24008;SDS011;12217;50.792;4.372;2024-02-26T08:44:50;18.20;;;14.82;;
24008;SDS011;12217;50.792;4.372;2024-02-26T08:47:16;16.50;;;14.15;;
24008;SDS011;12217;50.792;4.372;2024-02-26T08:49:42;11.95;;;10.85;;
24008;SDS011;12217;50.792;4.372;2024-02-26T08:52:09;11.40;;;10.30;;
24008;SDS011;12217;50.792;4.372;2024-02-26T08:54:34;15.38;;;13.27;;
24008;SDS011;12217;50.792;4.372;2024-02-26T08:57:00;11.60;;;10.50;;
24008;SDS011;12217;50.792;4.372;2024-02-26T08:59:25;12.35;;;11.25;;
24008;SDS011;12217;50.792;4.372;2024-02-26T09:01:51;11.95;;;10.85;;
24008;SDS011;12217;50.792;4.372;2024-02-26T09:04:17;14.02;;;11.98;;
24008;SDS011;12217;50.792;4.372;2024-02-26T09:06:42;13.30;;;12.02;;
24008;SDS011;12217;50.792;4.372;2024-02-26T09:09:08;11.98;;;10.90;;
24008;SDS011;12217;50.792;4.372;2024-02-26T09:11:33;12.95;;;11.07;;
24008;SDS011;12217;50.792;4.372;2024-02-26T09:13:59;13.13;;;11.73;;
24008;SDS011;12217;50.792;4.372;2024-02-26T09:16:24;12.15;;;11.02;;
24008;SDS011;12217;50.792;4.372;2024-02-26T09:18:50;12.35;;;11.25;;
24008;SDS011;12217;50.792;4.372;2024-02-26T09:21:15;11.50;;;10.50;;
24008;SDS011;12217;50.792;4.372;2024-02-26T09:23:47;12.05;;;10.95;;
24008;SDS011;12217;50.792;4.372;2024-02-26T09:26:13;11.43;;;10.38;;
24008;SDS011;12217;50.792;4.372;2024-02-26T09:28:39;12.75;;;11.48;;
24008;SDS011;12217;50.792;4.372;2024-02-26T09:31:04;12.45;;;11.35;;
24008;SDS011;12217;50.792;4.372;2024-02-26T09:33:31;11.85;;;10.82;;
24008;SDS011;12217;50.792;4.372;2024-02-26T09:35:57;11.88;;;10.70;;
24008;SDS011;12217;50.792;4.372;2024-02-26T09:38:23;12.10;;;11.00;;
24008;SDS011;12217;50.792;4.372;2024-02-26T09:40:49;11.15;;;10.20;;
24008;SDS011;12217;50.792;4.372;2024-02-26T09:43:15;11.90;;;10.80;;
24008;SDS011;12217;50.792;4.372;2024-02-26T09:45:44;11.55;;;10.55;;
24008;SDS011;12217;50.792;4.372;2024-02-26T09:48:10;11.50;;;10.40;;
24008;SDS011;12217;50.792;4.372;2024-02-26T09:50:38;12.00;;;10.90;;
24008;SDS011;12217;50.792;4.372;2024-02-26T09:53:06;11.55;;;10.35;;
24008;SDS011;12217;50.792;4.372;2024-02-26T09:55:35;12.02;;;10.80;;
24008;SDS011;12217;50.792;4.372;2024-02-26T09:58:01;11.75;;;10.38;;
24008;SDS011;12217;50.792;4.372;2024-02-26T10:00:30;17.42;;;11.68;;
24008;SDS011;12217;50.792;4.372;2024-02-26T10:02:59;11.73;;;10.38;;
24008;SDS011;12217;50.792;4.372;2024-02-26T10:05:28;11.20;;;9.95;;
24008;SDS011;12217;50.792;4.372;2024-02-26T10:07:54;11.07;;;10.00;;
24008;SDS011;12217;50.792;4.372;2024-02-26T10:10:22;11.10;;;10.00;;
24008;SDS011;12217;50.792;4.372;2024-02-26T10:12:48;11.77;;;10.45;;
24008;SDS011;12217;50.792;4.372;2024-02-26T10:15:14;10.40;;;9.40;;
24008;SDS011;12217;50.792;4.372;2024-02-26T10:17:41;10.93;;;9.50;;
24008;SDS011;12217;50.792;4.372;2024-02-26T10:22:42;30.17;;;14.30;;
24008;SDS011;12217;50.792;4.372;2024-02-26T10:25:11;19.38;;;10.50;;
24008;SDS011;12217;50.792;4.372;2024-02-26T10:27:37;17.67;;;9.95;;
24008;SDS011;12217;50.792;4.372;2024-02-26T10:30:03;17.02;;;10.88;;
24008;SDS011;12217;50.792;4.372;2024-02-26T10:32:30;10.23;;;8.63;;
24008;SDS011;12217;50.792;4.372;2024-02-26T10:34:56;13.25;;;8.85;;
24008;SDS011;12217;50.792;4.372;2024-02-26T10:37:22;8.75;;;7.72;;
24008;SDS011;12217;50.792;4.372;2024-02-26T10:39:48;15.00;;;9.10;;
24008;SDS011;12217;50.792;4.372;2024-02-26T10:42:14;22.40;;;13.38;;
24008;SDS011;12217;50.792;4.372;2024-02-26T10:44:40;12.05;;;10.80;;
24008;SDS011;12217;50.792;4.372;2024-02-26T10:47:07;15.63;;;13.00;;
24008;SDS011;12217;50.792;4.372;2024-02-26T10:49:34;9.48;;;8.50;;
24008;SDS011;12217;50.792;4.372;2024-02-26T10:52:00;11.18;;;7.78;;
24008;SDS011;12217;50.792;4.372;2024-02-26T10:54:29;7.70;;;7.03;;
24008;SDS011;12217;50.792;4.372;2024-02-26T10:56:57;7.10;;;6.50;;
24008;SDS011;12217;50.792;4.372;2024-02-26T10:59:24;7.38;;;6.78;;
24008;SDS011;12217;50.792;4.372;2024-02-26T11:01:51;7.13;;;6.53;;
24008;SDS011;12217;50.792;4.372;2024-02-26T11:04:17;7.13;;;6.43;;
24008;SDS011;12217;50.792;4.372;2024-02-26T11:06:44;7.20;;;6.60;;
24008;SDS011;12217;50.792;4.372;2024-02-26T11:09:12;7.40;;;6.70;;
24008;SDS011;12217;50.792;4.372;2024-02-26T11:11:39;7.00;;;6.40;;
24008;SDS011;12217;50.792;4.372;2024-02-26T11:14:06;7.15;;;6.45;;
24008;SDS011;12217;50.792;4.372;2024-02-26T11:16:34;7.28;;;6.57;;
24008;SDS011;12217;50.792;4.372;2024-02-26T11:19:00;6.60;;;6.10;;
24008;SDS011;12217;50.792;4.372;2024-02-26T11:21:27;7.28;;;6.57;;
24008;SDS011;12217;50.792;4.372;2024-02-26T11:24:03;6.45;;;5.95;;
24008;SDS011;12217;50.792;4.372;2024-02-26T11:26:41;6.82;;;6.18;;
24008;SDS011;12217;50.792;4.372;2024-02-26T11:29:13;6.30;;;5.70;;
24008;SDS011;12217;50.792;4.372;2024-02-26T11:31:41;5.60;;;5.10;;
24008;SDS011;12217;50.792;4.372;2024-02-26T11:34:08;5.93;;;5.43;;
24008;SDS011;12217;50.792;4.372;2024-02-26T11:36:34;5.65;;;5.25;;
24008;SDS011;12217;50.792;4.372;2024-02-26T11:39:01;5.13;;;4.72;;
24008;SDS011;12217;50.792;4.372;2024-02-26T11:41:28;5.85;;;5.35;;
24008;SDS011;12217;50.792;4.372;2024-02-26T11:43:58;9.18;;;5.10;;
24008;SDS011;12217;50.792;4.372;2024-02-26T11:46:29;5.28;;;4.88;;
24008;SDS011;12217;50.792;4.372;2024-02-26T11:48:56;5.00;;;4.60;;
24008;SDS011;12217;50.792;4.372;2024-02-26T11:51:27;5.40;;;4.97;;
24008;SDS011;12217;50.792;4.372;2024-02-26T11:53:56;5.40;;;5.00;;
24008;SDS011;12217;50.792;4.372;2024-02-26T11:56:23;5.78;;;4.82;;
24008;SDS011;12217;50.792;4.372;2024-02-26T11:58:57;5.07;;;4.63;;
24008;SDS011;12217;50.792;4.372;2024-02-26T12:04:06;5.28;;;4.70;;
24008;SDS011;12217;50.792;4.372;2024-02-26T12:06:45;5.30;;;4.90;;
24008;SDS011;12217;50.792;4.372;2024-02-26T12:09:12;7.03;;;6.03;;
24008;SDS011;12217;50.792;4.372;2024-02-26T12:11:39;7.60;;;6.40;;
24008;SDS011;12217;50.792;4.372;2024-02-26T12:14:05;6.70;;;6.00;;
24008;SDS011;12217;50.792;4.372;2024-02-26T12:16:39;10.38;;;7.70;;
24008;SDS011;12217;50.792;4.372;2024-02-26T12:19:08;10.25;;;8.02;;
24008;SDS011;12217;50.792;4.372;2024-02-26T12:21:35;6.28;;;5.55;;
24008;SDS011;12217;50.792;4.372;2024-02-26T12:24:14;6.00;;;5.40;;
24008;SDS011;12217;50.792;4.372;2024-02-26T12:26:43;5.85;;;5.35;;
24008;SDS011;12217;50.792;4.372;2024-02-26T12:29:08;6.13;;;5.57;;
24008;SDS011;12217;50.792;4.372;2024-02-26T12:31:36;7.05;;;6.35;;
24008;SDS011;12217;50.792;4.372;2024-02-26T12:34:02;5.68;;;5.25;;
24008;SDS011;12217;50.792;4.372;2024-02-26T12:36:29;8.98;;;5.95;;
24008;SDS011;12217;50.792;4.372;2024-02-26T12:38:55;8.60;;;6.75;;
24008;SDS011;12217;50.792;4.372;2024-02-26T12:41:27;10.70;;;6.70;;
24008;SDS011;12217;50.792;4.372;2024-02-26T12:44:14;9.50;;;8.20;;
24008;SDS011;12217;50.792;4.372;2024-02-26T12:46:43;6.05;;;4.82;;
24008;SDS011;12217;50.792;4.372;2024-02-26T12:49:09;3.50;;;3.20;;
24008;SDS011;12217;50.792;4.372;2024-02-26T12:51:40;3.85;;;3.47;;
24008;SDS011;12217;50.792;4.372;2024-02-26T12:54:06;3.90;;;3.60;;
24008;SDS011;12217;50.792;4.372;2024-02-26T12:56:34;3.55;;;3.25;;
24008;SDS011;12217;50.792;4.372;2024-02-26T12:58:59;3.50;;;3.20;;
24008;SDS011;12217;50.792;4.372;2024-02-26T13:01:27;4.00;;;3.60;;
24008;SDS011;12217;50.792;4.372;2024-02-26T13:03:53;3.63;;;3.35;;
24008;SDS011;12217;50.792;4.372;2024-02-26T13:06:19;3.70;;;3.40;;
24008;SDS011;12217;50.792;4.372;2024-02-26T13:08:46;3.75;;;3.45;;
24008;SDS011;12217;50.792;4.372;2024-02-26T13:11:12;4.10;;;3.80;;
24008;SDS011;12217;50.792;4.372;2024-02-26T13:13:38;4.15;;;3.83;;
24008;SDS011;12217;50.792;4.372;2024-02-26T13:16:09;4.13;;;3.83;;
24008;SDS011;12217;50.792;4.372;2024-02-26T13:18:39;4.30;;;4.00;;
24008;SDS011;12217;50.792;4.372;2024-02-26T13:21:14;4.82;;;4.43;;
24008;SDS011;12217;50.792;4.372;2024-02-26T13:23:41;4.43;;;4.00;;
24008;SDS011;12217;50.792;4.372;2024-02-26T13:26:08;5.50;;;5.00;;
24008;SDS011;12217;50.792;4.372;2024-02-26T13:28:36;5.78;;;4.75;;
24008;SDS011;12217;50.792;4.372;2024-02-26T13:31:02;5.40;;;5.00;;
24008;SDS011;12217;50.792;4.372;2024-02-26T13:33:30;6.13;;;5.20;;
24008;SDS011;12217;50.792;4.372;2024-02-26T13:35:56;5.82;;;5.32;;
24008;SDS011;12217;50.792;4.372;2024-02-26T13:38:23;6.38;;;5.78;;
24008;SDS011;12217;50.792;4.372;2024-02-26T13:40:49;6.55;;;6.03;;
24008;SDS011;12217;50.792;4.372;2024-02-26T13:43:15;5.97;;;5.47;;
24008;SDS011;12217;50.792;4.372;2024-02-26T13:45:41;6.85;;;6.15;;
24008;SDS011;12217;50.792;4.372;2024-02-26T13:48:07;7.63;;;6.78;;
24008;SDS011;12217;50.792;4.372;2024-02-26T13:50:37;7.07;;;6.47;;
24008;SDS011;12217;50.792;4.372;2024-02-26T13:53:03;6.85;;;6.32;;
24008;SDS011;12217;50.792;4.372;2024-02-26T13:55:29;8.45;;;7.57;;
24008;SDS011;12217;50.792;4.372;2024-02-26T13:57:57;7.70;;;7.00;;
24008;SDS011;12217;50.792;4.372;2024-02-26T14:00:24;9.02;;;8.13;;
24008;SDS011;12217;50.792;4.372;2024-02-26T14:02:50;8.95;;;8.07;;
24008;SDS011;12217;50.792;4.372;2024-02-26T14:05:16;9.75;;;8.85;;
24008;SDS011;12217;50.792;4.372;2024-02-26T14:07:42;10.48;;;8.52;;
24008;SDS011;12217;50.792;4.372;2024-02-26T14:10:08;9.80;;;8.90;;
24008;SDS011;12217;50.792;4.372;2024-02-26T14:12:36;10.63;;;9.48;;
24008;SDS011;12217;50.792;4.372;2024-02-26T14:15:08;10.27;;;9.27;;
24008;SDS011;12217;50.792;4.372;2024-02-26T14:17:35;10.48;;;9.40;;
24008;SDS011;12217;50.792;4.372;2024-02-26T14:20:10;10.55;;;9.45;;
24008;SDS011;12217;50.792;4.372;2024-02-26T14:22:36;10.25;;;9.23;;
24008;SDS011;12217;50.792;4.372;2024-02-26T14:25:02;10.90;;;9.90;;
24008;SDS011;12217;50.792;4.372;2024-02-26T14:27:28;11.20;;;9.82;;
24008;SDS011;12217;50.792;4.372;2024-02-26T14:29:53;11.18;;;9.95;;
24008;SDS011;12217;50.792;4.372;2024-02-26T14:32:20;12.23;;;10.20;;
24008;SDS011;12217;50.792;4.372;2024-02-26T14:34:45;11.13;;;10.00;;
24008;SDS011;12217;50.792;4.372;2024-02-26T14:37:11;10.63;;;9.52;;
24008;SDS011;12217;50.792;4.372;2024-02-26T14:39:37;10.65;;;9.57;;